Airfield :







YOU CAN JOIN US ON...

 
LOGIN :

Register | Disclaimer

   EN    FR    IT 

 









Legend :    VFR   Marginal VFR   IFR   Intensive IFR   Very Intensive IFR
Visi :
Ceiling :
>= 8 km
>= 3000ft
5 to 8 km
1000 to 3000 ft
1500m to 5 km
500 to 1000 ft
800 to 1500m
200 to 500 ft
< 800m
< 200 ft
Symbols :   Thunderstorms  Fog  Heavy snow  Heavy precipitations  Wind > 20 kt







- Airport Elevation : 141 ft
- IATA code : YQI


CYQI - Yarmouth

CURRENT METAR :
  • 192200Z 14007KT 9SM FEW020 BKN030 OVC045 08/07 A3013 RMK SF1SC5NS3 SF TR SLP207

EXPIRED METARs :
  • 192149Z 13008KT 9SM FEW012 SCT034 OVC045 08/07 A3013 RMK SF1SC3NS5 SF TR SLP207
  • 192100Z 16003KT 7SM -SHRA OVC035 08/07 A3016 RMK NS8 CVCTV CLD EMBD SLP218
  • 192000Z 23003KT 210V270 7SM -SHRA OVC039 08/06 A3017 RMK NS8 CVCTV CLD EMBD SLP219

TAF TAF CYQI
Valid from the 19 at 18:00 until the 20 at 06:00 UTC


191738Z 1918/2006 25010KT P6SM FEW020 SCT080 BKN100
TEMPO 1918/1924 P6SM -RA BKN020
BECMG 1922/1924 16010KT
FM200000 16010KT P6SM FEW012 OVC025
TEMPO 2000/2006 3SM -RA BR OVC012 RMK NXT FCST BY 200000Z
CZQM FIR / North America



MET'MAP, your aeronautical weather chart ! - Copyright ORBIFLY December 2007 - Disclaimer

ORBIFLY MET'MAP TEAM :

Programming & Development : Alexandra Zaïnal
Concept & Development : Baudouin d'Aumeries
Co-Development & Prog : Marc-Olivier Méhu
Technical & hardware support : Manuel Goepfert

Contact : metmap@orbifly.com




SOURCES & CREDITS :

   NOAA